sensor_id;sensor_type;location;lat;lon;timestamp;P1;durP1;ratioP1;P2;durP2;ratioP2
50433;SDS011;36361;38.954;-9.002;2023-12-07T00:00:58;13.57;;;6.40;;
50433;SDS011;36361;38.954;-9.002;2023-12-07T00:01:59;14.00;;;7.05;;
50433;SDS011;36361;38.954;-9.002;2023-12-07T00:03:00;14.43;;;6.85;;
50433;SDS011;36361;38.954;-9.002;2023-12-07T00:04:01;13.35;;;6.35;;
50433;SDS011;36361;38.954;-9.002;2023-12-07T00:05:02;15.30;;;6.68;;
50433;SDS011;36361;38.954;-9.002;2023-12-07T00:06:04;13.05;;;6.88;;
50433;SDS011;36361;38.954;-9.002;2023-12-07T00:07:04;11.52;;;6.13;;
50433;SDS011;36361;38.954;-9.002;2023-12-07T00:08:05;11.05;;;6.45;;
50433;SDS011;36361;38.954;-9.002;2023-12-07T00:09:09;14.25;;;6.63;;
50433;SDS011;36361;38.954;-9.002;2023-12-07T00:10:10;11.70;;;6.35;;
50433;SDS011;36361;38.954;-9.002;2023-12-07T00:11:11;13.20;;;6.72;;
50433;SDS011;36361;38.954;-9.002;2023-12-07T00:12:11;13.88;;;6.47;;
50433;SDS011;36361;38.954;-9.002;2023-12-07T00:13:12;11.45;;;6.57;;
50433;SDS011;36361;38.954;-9.002;2023-12-07T00:14:13;15.55;;;7.03;;
50433;SDS011;36361;38.954;-9.002;2023-12-07T00:15:14;14.63;;;6.53;;
50433;SDS011;36361;38.954;-9.002;2023-12-07T00:16:15;11.40;;;6.30;;
50433;SDS011;36361;38.954;-9.002;2023-12-07T00:17:16;10.75;;;6.18;;
50433;SDS011;36361;38.954;-9.002;2023-12-07T00:18:17;10.77;;;6.65;;
50433;SDS011;36361;38.954;-9.002;2023-12-07T00:19:18;12.43;;;6.53;;
50433;SDS011;36361;38.954;-9.002;2023-12-07T00:20:19;13.40;;;7.10;;
50433;SDS011;36361;38.954;-9.002;2023-12-07T00:21:20;12.50;;;6.45;;
50433;SDS011;36361;38.954;-9.002;2023-12-07T00:22:20;11.73;;;6.72;;
50433;SDS011;36361;38.954;-9.002;2023-12-07T00:23:21;11.30;;;6.45;;
50433;SDS011;36361;38.954;-9.002;2023-12-07T00:24:22;11.00;;;6.55;;
50433;SDS011;36361;38.954;-9.002;2023-12-07T00:25:23;15.23;;;7.05;;
50433;SDS011;36361;38.954;-9.002;2023-12-07T00:26:23;14.43;;;7.32;;
50433;SDS011;36361;38.954;-9.002;2023-12-07T00:27:24;18.63;;;7.22;;
50433;SDS011;36361;38.954;-9.002;2023-12-07T00:28:25;10.40;;;6.47;;
50433;SDS011;36361;38.954;-9.002;2023-12-07T00:29:26;11.30;;;6.80;;
50433;SDS011;36361;38.954;-9.002;2023-12-07T00:30:27;12.57;;;6.45;;
50433;SDS011;36361;38.954;-9.002;2023-12-07T00:31:28;14.73;;;7.30;;
50433;SDS011;36361;38.954;-9.002;2023-12-07T00:32:29;13.45;;;7.00;;
50433;SDS011;36361;38.954;-9.002;2023-12-07T00:33:29;12.30;;;6.60;;
50433;SDS011;36361;38.954;-9.002;2023-12-07T00:34:30;10.70;;;6.95;;
50433;SDS011;36361;38.954;-9.002;2023-12-07T00:35:31;11.65;;;7.00;;
50433;SDS011;36361;38.954;-9.002;2023-12-07T00:36:32;16.42;;;6.78;;
50433;SDS011;36361;38.954;-9.002;2023-12-07T00:37:33;12.65;;;6.85;;
50433;SDS011;36361;38.954;-9.002;2023-12-07T00:38:34;13.10;;;7.30;;
50433;SDS011;36361;38.954;-9.002;2023-12-07T00:39:34;15.88;;;7.40;;
50433;SDS011;36361;38.954;-9.002;2023-12-07T00:40:36;9.82;;;6.35;;
50433;SDS011;36361;38.954;-9.002;2023-12-07T00:41:39;13.70;;;6.45;;
50433;SDS011;36361;38.954;-9.002;2023-12-07T00:42:40;12.82;;;6.63;;
50433;SDS011;36361;38.954;-9.002;2023-12-07T00:43:40;15.75;;;7.15;;
50433;SDS011;36361;38.954;-9.002;2023-12-07T00:44:41;13.40;;;6.30;;
50433;SDS011;36361;38.954;-9.002;2023-12-07T00:45:42;11.90;;;7.35;;
50433;SDS011;36361;38.954;-9.002;2023-12-07T00:46:43;11.18;;;6.13;;
50433;SDS011;36361;38.954;-9.002;2023-12-07T00:47:44;14.85;;;7.53;;
50433;SDS011;36361;38.954;-9.002;2023-12-07T00:48:45;12.20;;;6.65;;
50433;SDS011;36361;38.954;-9.002;2023-12-07T00:49:46;11.75;;;6.93;;
50433;SDS011;36361;38.954;-9.002;2023-12-07T00:50:47;10.27;;;7.03;;
50433;SDS011;36361;38.954;-9.002;2023-12-07T00:51:47;18.90;;;7.82;;
50433;SDS011;36361;38.954;-9.002;2023-12-07T00:52:48;12.02;;;7.45;;
50433;SDS011;36361;38.954;-9.002;2023-12-07T00:53:49;14.65;;;6.53;;
50433;SDS011;36361;38.954;-9.002;2023-12-07T00:54:50;15.50;;;7.13;;
50433;SDS011;36361;38.954;-9.002;2023-12-07T00:55:50;12.18;;;6.80;;
50433;SDS011;36361;38.954;-9.002;2023-12-07T00:56:51;17.15;;;7.10;;
50433;SDS011;36361;38.954;-9.002;2023-12-07T00:57:52;13.88;;;7.10;;
50433;SDS011;36361;38.954;-9.002;2023-12-07T00:58:53;11.02;;;6.65;;
50433;SDS011;36361;38.954;-9.002;2023-12-07T00:59:53;10.75;;;7.03;;
50433;SDS011;36361;38.954;-9.002;2023-12-07T01:00:54;14.50;;;7.40;;
50433;SDS011;36361;38.954;-9.002;2023-12-07T01:01:55;11.85;;;7.50;;
50433;SDS011;36361;38.954;-9.002;2023-12-07T01:02:56;11.82;;;7.22;;
50433;SDS011;36361;38.954;-9.002;2023-12-07T01:03:57;16.70;;;8.07;;
50433;SDS011;36361;38.954;-9.002;2023-12-07T01:04:58;16.00;;;7.10;;
50433;SDS011;36361;38.954;-9.002;2023-12-07T01:05:58;11.57;;;7.00;;
50433;SDS011;36361;38.954;-9.002;2023-12-07T01:06:59;12.48;;;7.03;;
50433;SDS011;36361;38.954;-9.002;2023-12-07T01:08:00;16.20;;;7.32;;
50433;SDS011;36361;38.954;-9.002;2023-12-07T01:09:01;12.98;;;7.50;;
50433;SDS011;36361;38.954;-9.002;2023-12-07T01:10:04;13.70;;;7.63;;
50433;SDS011;36361;38.954;-9.002;2023-12-07T01:11:06;11.27;;;6.80;;
50433;SDS011;36361;38.954;-9.002;2023-12-07T01:12:06;12.15;;;6.60;;
50433;SDS011;36361;38.954;-9.002;2023-12-07T01:13:07;12.30;;;6.38;;
50433;SDS011;36361;38.954;-9.002;2023-12-07T01:14:08;14.82;;;7.65;;
50433;SDS011;36361;38.954;-9.002;2023-12-07T01:15:09;13.38;;;6.97;;
50433;SDS011;36361;38.954;-9.002;2023-12-07T01:16:09;14.27;;;7.00;;
50433;SDS011;36361;38.954;-9.002;2023-12-07T01:17:10;11.05;;;6.43;;
50433;SDS011;36361;38.954;-9.002;2023-12-07T01:18:11;12.30;;;7.32;;
50433;SDS011;36361;38.954;-9.002;2023-12-07T01:19:12;14.70;;;6.78;;
50433;SDS011;36361;38.954;-9.002;2023-12-07T01:20:14;12.88;;;6.47;;
50433;SDS011;36361;38.954;-9.002;2023-12-07T01:21:15;11.80;;;7.30;;
50433;SDS011;36361;38.954;-9.002;2023-12-07T01:22:16;11.25;;;6.75;;
50433;SDS011;36361;38.954;-9.002;2023-12-07T01:23:17;11.20;;;6.88;;
50433;SDS011;36361;38.954;-9.002;2023-12-07T01:24:17;12.55;;;6.30;;
50433;SDS011;36361;38.954;-9.002;2023-12-07T01:25:18;13.05;;;6.57;;
50433;SDS011;36361;38.954;-9.002;2023-12-07T01:26:21;13.30;;;6.78;;
50433;SDS011;36361;38.954;-9.002;2023-12-07T01:27:22;19.98;;;6.30;;
50433;SDS011;36361;38.954;-9.002;2023-12-07T01:28:23;11.82;;;5.70;;
50433;SDS011;36361;38.954;-9.002;2023-12-07T01:29:24;10.55;;;5.72;;
50433;SDS011;36361;38.954;-9.002;2023-12-07T01:30:24;12.13;;;7.22;;
50433;SDS011;36361;38.954;-9.002;2023-12-07T01:31:25;12.63;;;6.50;;
50433;SDS011;36361;38.954;-9.002;2023-12-07T01:32:26;14.45;;;6.15;;
50433;SDS011;36361;38.954;-9.002;2023-12-07T01:33:27;17.77;;;7.65;;
50433;SDS011;36361;38.954;-9.002;2023-12-07T01:34:28;11.02;;;7.13;;
50433;SDS011;36361;38.954;-9.002;2023-12-07T01:35:29;12.38;;;6.93;;
50433;SDS011;36361;38.954;-9.002;2023-12-07T01:36:30;11.55;;;6.20;;
50433;SDS011;36361;38.954;-9.002;2023-12-07T01:37:30;15.10;;;6.85;;
50433;SDS011;36361;38.954;-9.002;2023-12-07T01:38:31;11.68;;;6.40;;
50433;SDS011;36361;38.954;-9.002;2023-12-07T01:39:32;14.10;;;7.60;;
50433;SDS011;36361;38.954;-9.002;2023-12-07T01:40:33;18.60;;;8.27;;
50433;SDS011;36361;38.954;-9.002;2023-12-07T01:41:34;16.48;;;6.90;;
50433;SDS011;36361;38.954;-9.002;2023-12-07T01:42:38;12.68;;;7.65;;
50433;SDS011;36361;38.954;-9.002;2023-12-07T01:43:44;11.02;;;6.47;;
50433;SDS011;36361;38.954;-9.002;2023-12-07T01:44:46;12.48;;;6.80;;
50433;SDS011;36361;38.954;-9.002;2023-12-07T01:45:47;14.68;;;7.38;;
50433;SDS011;36361;38.954;-9.002;2023-12-07T01:46:48;13.68;;;7.25;;
50433;SDS011;36361;38.954;-9.002;2023-12-07T01:47:49;15.05;;;7.35;;
50433;SDS011;36361;38.954;-9.002;2023-12-07T01:48:53;14.20;;;7.00;;
50433;SDS011;36361;38.954;-9.002;2023-12-07T01:49:53;11.80;;;7.43;;
50433;SDS011;36361;38.954;-9.002;2023-12-07T01:50:55;13.85;;;7.38;;
50433;SDS011;36361;38.954;-9.002;2023-12-07T01:51:57;11.80;;;6.65;;
50433;SDS011;36361;38.954;-9.002;2023-12-07T01:53:02;18.02;;;7.75;;
50433;SDS011;36361;38.954;-9.002;2023-12-07T01:54:04;13.90;;;6.82;;
50433;SDS011;36361;38.954;-9.002;2023-12-07T01:55:05;12.90;;;6.38;;
50433;SDS011;36361;38.954;-9.002;2023-12-07T01:56:09;11.50;;;6.47;;
50433;SDS011;36361;38.954;-9.002;2023-12-07T01:57:11;17.52;;;7.53;;
50433;SDS011;36361;38.954;-9.002;2023-12-07T01:58:11;11.30;;;6.30;;
50433;SDS011;36361;38.954;-9.002;2023-12-07T01:59:12;12.52;;;6.57;;
50433;SDS011;36361;38.954;-9.002;2023-12-07T02:00:13;14.13;;;7.10;;
50433;SDS011;36361;38.954;-9.002;2023-12-07T02:01:15;11.80;;;7.13;;
50433;SDS011;36361;38.954;-9.002;2023-12-07T02:02:17;9.32;;;6.38;;
50433;SDS011;36361;38.954;-9.002;2023-12-07T02:03:18;9.60;;;6.20;;
50433;SDS011;36361;38.954;-9.002;2023-12-07T02:04:20;14.07;;;7.05;;
50433;SDS011;36361;38.954;-9.002;2023-12-07T02:05:21;9.88;;;6.22;;
50433;SDS011;36361;38.954;-9.002;2023-12-07T02:06:22;11.73;;;6.25;;
50433;SDS011;36361;38.954;-9.002;2023-12-07T02:07:23;14.25;;;7.07;;
50433;SDS011;36361;38.954;-9.002;2023-12-07T02:08:24;11.93;;;6.95;;
50433;SDS011;36361;38.954;-9.002;2023-12-07T02:09:25;15.20;;;7.03;;
50433;SDS011;36361;38.954;-9.002;2023-12-07T02:10:26;13.15;;;7.00;;
50433;SDS011;36361;38.954;-9.002;2023-12-07T02:11:27;14.95;;;6.88;;
50433;SDS011;36361;38.954;-9.002;2023-12-07T02:12:27;14.85;;;7.13;;
50433;SDS011;36361;38.954;-9.002;2023-12-07T02:13:29;13.45;;;6.65;;
50433;SDS011;36361;38.954;-9.002;2023-12-07T02:14:30;13.63;;;6.35;;
50433;SDS011;36361;38.954;-9.002;2023-12-07T02:15:31;13.23;;;6.47;;
50433;SDS011;36361;38.954;-9.002;2023-12-07T02:16:39;14.35;;;6.63;;
50433;SDS011;36361;38.954;-9.002;2023-12-07T02:20:26;16.27;;;7.20;;
50433;SDS011;36361;38.954;-9.002;2023-12-07T02:21:34;20.80;;;7.45;;
50433;SDS011;36361;38.954;-9.002;2023-12-07T02:23:43;14.60;;;7.00;;
50433;SDS011;36361;38.954;-9.002;2023-12-07T02:25:06;14.80;;;6.68;;
50433;SDS011;36361;38.954;-9.002;2023-12-07T02:26:08;11.98;;;6.97;;
50433;SDS011;36361;38.954;-9.002;2023-12-07T02:27:11;11.75;;;6.97;;
50433;SDS011;36361;38.954;-9.002;2023-12-07T02:28:11;10.98;;;7.88;;
50433;SDS011;36361;38.954;-9.002;2023-12-07T02:29:12;15.93;;;8.80;;
50433;SDS011;36361;38.954;-9.002;2023-12-07T02:30:13;14.18;;;7.30;;
50433;SDS011;36361;38.954;-9.002;2023-12-07T02:31:15;13.00;;;6.95;;
50433;SDS011;36361;38.954;-9.002;2023-12-07T02:32:16;12.13;;;7.15;;
50433;SDS011;36361;38.954;-9.002;2023-12-07T02:33:16;12.65;;;7.80;;
50433;SDS011;36361;38.954;-9.002;2023-12-07T02:34:17;13.43;;;8.07;;
50433;SDS011;36361;38.954;-9.002;2023-12-07T02:35:19;14.05;;;7.60;;
50433;SDS011;36361;38.954;-9.002;2023-12-07T02:36:20;11.73;;;7.45;;
50433;SDS011;36361;38.954;-9.002;2023-12-07T02:37:24;13.57;;;7.20;;
50433;SDS011;36361;38.954;-9.002;2023-12-07T02:38:28;13.63;;;7.25;;
50433;SDS011;36361;38.954;-9.002;2023-12-07T02:39:30;17.23;;;8.30;;
50433;SDS011;36361;38.954;-9.002;2023-12-07T02:40:31;15.07;;;7.80;;
50433;SDS011;36361;38.954;-9.002;2023-12-07T02:41:32;14.45;;;7.82;;
50433;SDS011;36361;38.954;-9.002;2023-12-07T02:42:35;14.75;;;8.25;;
50433;SDS011;36361;38.954;-9.002;2023-12-07T02:43:38;15.93;;;8.00;;
50433;SDS011;36361;38.954;-9.002;2023-12-07T02:44:39;11.93;;;7.30;;
50433;SDS011;36361;38.954;-9.002;2023-12-07T02:45:40;11.10;;;6.80;;
50433;SDS011;36361;38.954;-9.002;2023-12-07T02:46:42;13.63;;;7.00;;
50433;SDS011;36361;38.954;-9.002;2023-12-07T02:47:43;13.25;;;7.25;;
50433;SDS011;36361;38.954;-9.002;2023-12-07T02:48:45;10.32;;;6.93;;
50433;SDS011;36361;38.954;-9.002;2023-12-07T02:49:46;14.23;;;7.53;;
50433;SDS011;36361;38.954;-9.002;2023-12-07T02:50:47;12.15;;;7.35;;
50433;SDS011;36361;38.954;-9.002;2023-12-07T02:51:48;17.27;;;7.30;;
50433;SDS011;36361;38.954;-9.002;2023-12-07T02:52:48;12.27;;;7.38;;
50433;SDS011;36361;38.954;-9.002;2023-12-07T02:53:50;13.18;;;7.10;;
50433;SDS011;36361;38.954;-9.002;2023-12-07T02:54:51;13.07;;;7.55;;
50433;SDS011;36361;38.954;-9.002;2023-12-07T02:55:51;13.15;;;6.88;;
50433;SDS011;36361;38.954;-9.002;2023-12-07T02:56:52;11.43;;;6.95;;
50433;SDS011;36361;38.954;-9.002;2023-12-07T02:57:53;12.30;;;7.72;;
50433;SDS011;36361;38.954;-9.002;2023-12-07T02:58:54;11.27;;;6.63;;
50433;SDS011;36361;38.954;-9.002;2023-12-07T02:59:55;11.60;;;7.22;;
50433;SDS011;36361;38.954;-9.002;2023-12-07T03:00:56;13.90;;;6.93;;
50433;SDS011;36361;38.954;-9.002;2023-12-07T03:01:57;14.40;;;7.45;;
50433;SDS011;36361;38.954;-9.002;2023-12-07T03:02:58;14.95;;;6.85;;
50433;SDS011;36361;38.954;-9.002;2023-12-07T03:03:58;14.10;;;6.97;;
50433;SDS011;36361;38.954;-9.002;2023-12-07T03:04:59;14.90;;;7.68;;
50433;SDS011;36361;38.954;-9.002;2023-12-07T03:06:00;11.43;;;7.25;;
50433;SDS011;36361;38.954;-9.002;2023-12-07T03:07:01;10.05;;;6.57;;
50433;SDS011;36361;38.954;-9.002;2023-12-07T03:08:02;12.05;;;6.05;;
50433;SDS011;36361;38.954;-9.002;2023-12-07T03:09:03;14.00;;;6.85;;
50433;SDS011;36361;38.954;-9.002;2023-12-07T03:10:04;14.65;;;6.50;;
50433;SDS011;36361;38.954;-9.002;2023-12-07T03:11:05;12.63;;;6.40;;
50433;SDS011;36361;38.954;-9.002;2023-12-07T03:12:06;13.82;;;7.35;;
50433;SDS011;36361;38.954;-9.002;2023-12-07T03:13:07;14.90;;;6.93;;
50433;SDS011;36361;38.954;-9.002;2023-12-07T03:14:08;13.90;;;7.13;;
50433;SDS011;36361;38.954;-9.002;2023-12-07T03:15:09;13.60;;;6.97;;
50433;SDS011;36361;38.954;-9.002;2023-12-07T03:16:10;10.07;;;6.13;;
50433;SDS011;36361;38.954;-9.002;2023-12-07T03:17:11;10.15;;;6.75;;
50433;SDS011;36361;38.954;-9.002;2023-12-07T03:18:12;16.88;;;7.38;;
50433;SDS011;36361;38.954;-9.002;2023-12-07T03:19:13;12.88;;;6.65;;
50433;SDS011;36361;38.954;-9.002;2023-12-07T03:20:14;12.80;;;6.65;;
50433;SDS011;36361;38.954;-9.002;2023-12-07T03:21:15;11.80;;;6.40;;
50433;SDS011;36361;38.954;-9.002;2023-12-07T03:22:16;11.35;;;5.93;;
50433;SDS011;36361;38.954;-9.002;2023-12-07T03:23:16;14.38;;;7.00;;
50433;SDS011;36361;38.954;-9.002;2023-12-07T03:24:17;9.73;;;6.35;;
50433;SDS011;36361;38.954;-9.002;2023-12-07T03:25:18;13.85;;;6.68;;
50433;SDS011;36361;38.954;-9.002;2023-12-07T03:26:19;8.63;;;5.85;;
50433;SDS011;36361;38.954;-9.002;2023-12-07T03:27:20;13.27;;;7.60;;
50433;SDS011;36361;38.954;-9.002;2023-12-07T03:28:21;13.65;;;6.43;;
50433;SDS011;36361;38.954;-9.002;2023-12-07T03:29:22;11.82;;;6.35;;
50433;SDS011;36361;38.954;-9.002;2023-12-07T03:30:22;9.48;;;5.95;;
50433;SDS011;36361;38.954;-9.002;2023-12-07T03:31:23;11.35;;;6.78;;
50433;SDS011;36361;38.954;-9.002;2023-12-07T03:32:24;14.40;;;7.00;;
50433;SDS011;36361;38.954;-9.002;2023-12-07T03:33:25;12.23;;;6.05;;
50433;SDS011;36361;38.954;-9.002;2023-12-07T03:34:25;10.63;;;6.20;;
50433;SDS011;36361;38.954;-9.002;2023-12-07T03:35:26;11.18;;;6.50;;
50433;SDS011;36361;38.954;-9.002;2023-12-07T03:36:27;11.15;;;6.60;;
50433;SDS011;36361;38.954;-9.002;2023-12-07T03:37:28;13.60;;;6.82;;
50433;SDS011;36361;38.954;-9.002;2023-12-07T03:38:29;12.05;;;6.70;;
50433;SDS011;36361;38.954;-9.002;2023-12-07T03:39:30;12.55;;;6.68;;
50433;SDS011;36361;38.954;-9.002;2023-12-07T03:40:32;10.25;;;6.28;;
50433;SDS011;36361;38.954;-9.002;2023-12-07T03:41:33;10.23;;;6.13;;
50433;SDS011;36361;38.954;-9.002;2023-12-07T03:42:34;15.95;;;7.57;;
50433;SDS011;36361;38.954;-9.002;2023-12-07T03:43:35;11.70;;;7.07;;
50433;SDS011;36361;38.954;-9.002;2023-12-07T03:44:36;12.50;;;6.18;;
50433;SDS011;36361;38.954;-9.002;2023-12-07T03:45:36;12.73;;;6.35;;
50433;SDS011;36361;38.954;-9.002;2023-12-07T03:46:37;12.65;;;6.50;;
50433;SDS011;36361;38.954;-9.002;2023-12-07T03:47:38;11.38;;;6.90;;
50433;SDS011;36361;38.954;-9.002;2023-12-07T03:48:39;13.23;;;6.32;;
50433;SDS011;36361;38.954;-9.002;2023-12-07T03:49:39;13.27;;;7.45;;
50433;SDS011;36361;38.954;-9.002;2023-12-07T03:50:41;13.90;;;6.43;;
50433;SDS011;36361;38.954;-9.002;2023-12-07T03:51:42;14.88;;;7.53;;
50433;SDS011;36361;38.954;-9.002;2023-12-07T03:52:43;12.52;;;7.28;;
50433;SDS011;36361;38.954;-9.002;2023-12-07T03:53:44;12.57;;;7.50;;
50433;SDS011;36361;38.954;-9.002;2023-12-07T03:54:44;14.65;;;7.43;;
50433;SDS011;36361;38.954;-9.002;2023-12-07T03:55:45;12.23;;;6.72;;
50433;SDS011;36361;38.954;-9.002;2023-12-07T03:56:46;10.40;;;6.68;;
50433;SDS011;36361;38.954;-9.002;2023-12-07T03:57:47;11.15;;;6.60;;
50433;SDS011;36361;38.954;-9.002;2023-12-07T03:58:48;10.27;;;6.90;;
50433;SDS011;36361;38.954;-9.002;2023-12-07T03:59:48;12.77;;;7.47;;
50433;SDS011;36361;38.954;-9.002;2023-12-07T04:00:49;16.40;;;8.15;;
50433;SDS011;36361;38.954;-9.002;2023-12-07T04:01:50;10.73;;;7.32;;
50433;SDS011;36361;38.954;-9.002;2023-12-07T04:02:51;16.60;;;7.60;;
50433;SDS011;36361;38.954;-9.002;2023-12-07T04:03:52;13.32;;;8.55;;
50433;SDS011;36361;38.954;-9.002;2023-12-07T04:04:54;13.07;;;7.75;;
50433;SDS011;36361;38.954;-9.002;2023-12-07T04:05:56;14.98;;;8.05;;
50433;SDS011;36361;38.954;-9.002;2023-12-07T04:06:56;14.52;;;7.70;;
50433;SDS011;36361;38.954;-9.002;2023-12-07T04:07:57;17.35;;;8.07;;
50433;SDS011;36361;38.954;-9.002;2023-12-07T04:08:58;14.38;;;7.88;;
50433;SDS011;36361;38.954;-9.002;2023-12-07T04:09:59;12.73;;;7.93;;
50433;SDS011;36361;38.954;-9.002;2023-12-07T04:11:00;12.98;;;7.95;;
50433;SDS011;36361;38.954;-9.002;2023-12-07T04:12:00;18.52;;;9.05;;
50433;SDS011;36361;38.954;-9.002;2023-12-07T04:13:01;17.42;;;8.30;;
50433;SDS011;36361;38.954;-9.002;2023-12-07T04:14:03;14.07;;;8.18;;
50433;SDS011;36361;38.954;-9.002;2023-12-07T04:15:04;12.65;;;8.23;;
50433;SDS011;36361;38.954;-9.002;2023-12-07T04:16:05;11.55;;;7.60;;
50433;SDS011;36361;38.954;-9.002;2023-12-07T04:17:07;14.63;;;7.60;;
50433;SDS011;36361;38.954;-9.002;2023-12-07T04:18:08;12.38;;;7.90;;
50433;SDS011;36361;38.954;-9.002;2023-12-07T04:19:08;14.43;;;8.73;;
50433;SDS011;36361;38.954;-9.002;2023-12-07T04:20:09;15.88;;;8.05;;
50433;SDS011;36361;38.954;-9.002;2023-12-07T04:21:11;14.45;;;9.05;;
50433;SDS011;36361;38.954;-9.002;2023-12-07T04:22:12;12.57;;;8.30;;
50433;SDS011;36361;38.954;-9.002;2023-12-07T04:23:13;16.58;;;8.48;;
50433;SDS011;36361;38.954;-9.002;2023-12-07T04:24:14;13.52;;;7.82;;
50433;SDS011;36361;38.954;-9.002;2023-12-07T04:25:14;16.15;;;8.38;;
50433;SDS011;36361;38.954;-9.002;2023-12-07T04:26:15;17.85;;;8.85;;
50433;SDS011;36361;38.954;-9.002;2023-12-07T04:27:16;12.52;;;7.97;;
50433;SDS011;36361;38.954;-9.002;2023-12-07T04:28:17;13.68;;;8.90;;
50433;SDS011;36361;38.954;-9.002;2023-12-07T04:29:18;16.08;;;9.00;;
50433;SDS011;36361;38.954;-9.002;2023-12-07T04:30:19;13.10;;;7.95;;
50433;SDS011;36361;38.954;-9.002;2023-12-07T04:31:19;17.15;;;8.95;;
50433;SDS011;36361;38.954;-9.002;2023-12-07T04:32:21;16.83;;;8.50;;
50433;SDS011;36361;38.954;-9.002;2023-12-07T04:33:22;12.27;;;7.78;;
50433;SDS011;36361;38.954;-9.002;2023-12-07T04:34:23;12.60;;;7.57;;
50433;SDS011;36361;38.954;-9.002;2023-12-07T04:35:23;13.35;;;8.23;;
50433;SDS011;36361;38.954;-9.002;2023-12-07T04:36:24;17.63;;;8.35;;
50433;SDS011;36361;38.954;-9.002;2023-12-07T04:37:25;13.40;;;7.57;;
50433;SDS011;36361;38.954;-9.002;2023-12-07T04:38:26;13.55;;;7.82;;
50433;SDS011;36361;38.954;-9.002;2023-12-07T04:39:27;17.48;;;8.68;;
50433;SDS011;36361;38.954;-9.002;2023-12-07T04:40:28;13.60;;;8.75;;
50433;SDS011;36361;38.954;-9.002;2023-12-07T04:41:29;14.75;;;8.80;;
50433;SDS011;36361;38.954;-9.002;2023-12-07T04:42:30;15.65;;;9.00;;
50433;SDS011;36361;38.954;-9.002;2023-12-07T04:43:31;15.77;;;8.98;;
50433;SDS011;36361;38.954;-9.002;2023-12-07T04:44:31;15.57;;;8.77;;
50433;SDS011;36361;38.954;-9.002;2023-12-07T04:45:32;18.20;;;8.85;;
50433;SDS011;36361;38.954;-9.002;2023-12-07T04:46:33;12.88;;;8.60;;
50433;SDS011;36361;38.954;-9.002;2023-12-07T04:47:35;13.73;;;9.35;;
50433;SDS011;36361;38.954;-9.002;2023-12-07T04:48:36;14.77;;;8.38;;
50433;SDS011;36361;38.954;-9.002;2023-12-07T04:49:37;14.93;;;8.77;;
50433;SDS011;36361;38.954;-9.002;2023-12-07T04:50:38;15.35;;;9.40;;
50433;SDS011;36361;38.954;-9.002;2023-12-07T04:51:39;17.10;;;9.27;;
50433;SDS011;36361;38.954;-9.002;2023-12-07T04:52:42;17.70;;;8.98;;
50433;SDS011;36361;38.954;-9.002;2023-12-07T04:53:43;16.17;;;9.38;;
50433;SDS011;36361;38.954;-9.002;2023-12-07T04:54:43;15.07;;;9.27;;
50433;SDS011;36361;38.954;-9.002;2023-12-07T04:55:44;13.50;;;8.75;;
50433;SDS011;36361;38.954;-9.002;2023-12-07T04:56:50;14.73;;;8.80;;
50433;SDS011;36361;38.954;-9.002;2023-12-07T04:57:51;15.07;;;9.15;;
50433;SDS011;36361;38.954;-9.002;2023-12-07T04:58:51;14.65;;;9.05;;
50433;SDS011;36361;38.954;-9.002;2023-12-07T04:59:52;17.58;;;9.38;;
50433;SDS011;36361;38.954;-9.002;2023-12-07T05:00:53;15.68;;;8.98;;
50433;SDS011;36361;38.954;-9.002;2023-12-07T05:01:54;15.98;;;9.15;;
50433;SDS011;36361;38.954;-9.002;2023-12-07T05:02:55;15.23;;;9.13;;
50433;SDS011;36361;38.954;-9.002;2023-12-07T05:03:56;15.50;;;10.45;;
50433;SDS011;36361;38.954;-9.002;2023-12-07T05:04:57;16.73;;;9.68;;
50433;SDS011;36361;38.954;-9.002;2023-12-07T05:05:57;14.77;;;8.45;;
50433;SDS011;36361;38.954;-9.002;2023-12-07T05:06:58;16.33;;;8.75;;
50433;SDS011;36361;38.954;-9.002;2023-12-07T05:08:01;21.35;;;9.32;;
50433;SDS011;36361;38.954;-9.002;2023-12-07T05:09:02;14.75;;;9.95;;
50433;SDS011;36361;38.954;-9.002;2023-12-07T05:10:03;15.38;;;8.90;;
50433;SDS011;36361;38.954;-9.002;2023-12-07T05:11:04;14.93;;;8.95;;
50433;SDS011;36361;38.954;-9.002;2023-12-07T05:12:07;19.02;;;9.45;;
50433;SDS011;36361;38.954;-9.002;2023-12-07T05:13:07;14.55;;;9.32;;
50433;SDS011;36361;38.954;-9.002;2023-12-07T05:14:08;16.33;;;9.38;;
50433;SDS011;36361;38.954;-9.002;2023-12-07T05:15:09;11.55;;;8.48;;
50433;SDS011;36361;38.954;-9.002;2023-12-07T05:16:10;20.23;;;8.93;;
50433;SDS011;36361;38.954;-9.002;2023-12-07T05:17:11;14.60;;;9.38;;
50433;SDS011;36361;38.954;-9.002;2023-12-07T05:18:12;14.23;;;9.02;;
50433;SDS011;36361;38.954;-9.002;2023-12-07T05:19:12;13.55;;;8.80;;
50433;SDS011;36361;38.954;-9.002;2023-12-07T05:20:13;18.70;;;9.75;;
50433;SDS011;36361;38.954;-9.002;2023-12-07T05:21:15;14.77;;;9.23;;
50433;SDS011;36361;38.954;-9.002;2023-12-07T05:22:16;22.77;;;10.73;;
50433;SDS011;36361;38.954;-9.002;2023-12-07T05:23:17;16.45;;;9.35;;
50433;SDS011;36361;38.954;-9.002;2023-12-07T05:24:18;18.05;;;9.32;;
50433;SDS011;36361;38.954;-9.002;2023-12-07T05:25:18;16.65;;;9.38;;
50433;SDS011;36361;38.954;-9.002;2023-12-07T05:26:19;18.58;;;8.82;;
50433;SDS011;36361;38.954;-9.002;2023-12-07T05:27:21;17.27;;;9.73;;
50433;SDS011;36361;38.954;-9.002;2023-12-07T05:28:22;16.48;;;9.30;;
50433;SDS011;36361;38.954;-9.002;2023-12-07T05:29:23;13.43;;;8.75;;
50433;SDS011;36361;38.954;-9.002;2023-12-07T05:30:23;14.73;;;10.23;;
50433;SDS011;36361;38.954;-9.002;2023-12-07T05:31:24;14.45;;;9.35;;
50433;SDS011;36361;38.954;-9.002;2023-12-07T05:32:26;19.23;;;10.13;;
50433;SDS011;36361;38.954;-9.002;2023-12-07T05:33:27;16.92;;;9.32;;
50433;SDS011;36361;38.954;-9.002;2023-12-07T05:34:27;17.02;;;9.15;;
50433;SDS011;36361;38.954;-9.002;2023-12-07T05:35:28;16.27;;;9.70;;
50433;SDS011;36361;38.954;-9.002;2023-12-07T05:36:29;25.20;;;8.88;;
50433;SDS011;36361;38.954;-9.002;2023-12-07T05:37:30;18.25;;;8.55;;
50433;SDS011;36361;38.954;-9.002;2023-12-07T05:38:31;16.75;;;8.98;;
50433;SDS011;36361;38.954;-9.002;2023-12-07T05:39:32;15.00;;;8.40;;
50433;SDS011;36361;38.954;-9.002;2023-12-07T05:40:32;14.88;;;8.07;;
50433;SDS011;36361;38.954;-9.002;2023-12-07T05:41:34;15.98;;;8.60;;
50433;SDS011;36361;38.954;-9.002;2023-12-07T05:42:34;15.70;;;8.68;;
50433;SDS011;36361;38.954;-9.002;2023-12-07T05:43:35;15.32;;;8.30;;
50433;SDS011;36361;38.954;-9.002;2023-12-07T05:44:36;14.18;;;8.07;;
50433;SDS011;36361;38.954;-9.002;2023-12-07T05:45:37;16.17;;;8.85;;
50433;SDS011;36361;38.954;-9.002;2023-12-07T05:46:38;14.45;;;8.45;;
50433;SDS011;36361;38.954;-9.002;2023-12-07T05:47:44;18.20;;;9.02;;
50433;SDS011;36361;38.954;-9.002;2023-12-07T05:48:45;16.50;;;9.13;;
50433;SDS011;36361;38.954;-9.002;2023-12-07T05:49:46;26.80;;;8.77;;
50433;SDS011;36361;38.954;-9.002;2023-12-07T05:50:47;18.30;;;8.88;;
50433;SDS011;36361;38.954;-9.002;2023-12-07T05:51:48;16.10;;;8.95;;
50433;SDS011;36361;38.954;-9.002;2023-12-07T05:52:49;17.25;;;9.15;;
50433;SDS011;36361;38.954;-9.002;2023-12-07T05:53:50;18.70;;;9.02;;
50433;SDS011;36361;38.954;-9.002;2023-12-07T05:54:50;14.07;;;8.02;;
50433;SDS011;36361;38.954;-9.002;2023-12-07T05:55:51;13.40;;;8.73;;
50433;SDS011;36361;38.954;-9.002;2023-12-07T05:56:52;22.05;;;10.27;;
50433;SDS011;36361;38.954;-9.002;2023-12-07T05:57:53;15.57;;;9.93;;
50433;SDS011;36361;38.954;-9.002;2023-12-07T05:58:53;18.02;;;9.70;;
50433;SDS011;36361;38.954;-9.002;2023-12-07T05:59:54;17.92;;;9.68;;
50433;SDS011;36361;38.954;-9.002;2023-12-07T06:00:55;22.30;;;10.50;;
50433;SDS011;36361;38.954;-9.002;2023-12-07T06:01:56;14.82;;;9.75;;